Terminal Aerodrome Forecast
Issued by NWS

Home | Current Version | Previous Version | Text Only | Print | Product List | Glossary On
Versions: 1 2 3 4 5 6 7 8 9 10 11 12 13 14 15 16 17 18 19 20 21 22 23 24 25
410
FTUS41 KBUF 040915 AAA
TAFJHW
TAF AMD
KJHW 040915Z 0409/0506 VRB03KT P6SM OVC040
      TEMPO 0409/0413 BKN025
     FM041800 12006KT P6SM BKN040
     FM050200 16006KT 2SM -SN OVC025
      AMD LTD TO CLD VIS AND WIND=

USA.gov is the U.S. government's official web portal to all federal, state and local government web resources and services.